Time,TemperatureF,DewpointF,PressureIn,WindDirection,WindDirectionDegrees,WindSpeedMPH,WindSpeedGustMPH,Humidity,HourlyPrecipIn,Conditions,Clouds,dailyrainin,SoftwareType,DateUTC
2013-01-30 00:02:00,43.3,32.4,30.18,NE,44,0.0,0.0,65,0.00,,CLR,0.00,VWS V14.00,2013-01-30 08:02:00,
2013-01-30 00:08:00,43.3,32.4,30.18,NE,44,0.0,0.0,65,0.00,,CLR,0.00,VWS V14.00,2013-01-30 08:08:00,
2013-01-30 00:14:00,43.3,32.4,30.18,NE,44,0.0,0.0,65,0.00,,CLR,0.00,VWS V14.00,2013-01-30 08:14:00,
2013-01-30 00:20:00,43.1,32.2,30.18,NE,44,0.0,0.0,65,0.00,,CLR,0.00,VWS V14.00,2013-01-30 08:20:00,
2013-01-30 00:26:00,43.0,32.0,30.18,NE,44,0.0,0.0,65,0.00,,CLR,0.00,VWS V14.00,2013-01-30 08:26:00,
2013-01-30 00:32:00,42.8,31.9,30.18,NE,44,0.0,0.0,65,0.00,,CLR,0.00,VWS V14.00,2013-01-30 08:32:00,
2013-01-30 00:38:00,42.6,31.7,30.18,NE,44,0.0,0.0,65,0.00,,CLR,0.00,VWS V14.00,2013-01-30 08:38:00,
2013-01-30 00:44:00,42.4,31.9,30.18,NE,44,0.0,0.0,66,0.00,,CLR,0.00,VWS V14.00,2013-01-30 08:44:00,
2013-01-30 00:50:00,42.4,31.9,30.18,NE,44,0.0,0.0,66,0.00,,CLR,0.00,VWS V14.00,2013-01-30 08:50:00,
2013-01-30 00:56:00,42.2,31.7,30.18,NE,44,0.0,0.0,66,0.00,,CLR,0.00,VWS V14.00,2013-01-30 08:56:00,
2013-01-30 01:02:00,42.4,32.2,30.18,NE,44,0.0,0.0,67,0.00,,CLR,0.00,VWS V14.00,2013-01-30 09:02:00,
2013-01-30 01:08:00,42.1,31.9,30.18,NE,44,0.0,0.0,67,0.00,,CLR,0.00,VWS V14.00,2013-01-30 09:08:00,
2013-01-30 01:14:00,41.9,31.7,30.18,NE,44,0.0,0.0,67,0.00,,CLR,0.00,VWS V14.00,2013-01-30 09:14:00,
2013-01-30 01:20:00,41.9,31.7,30.18,NE,44,0.0,0.0,67,0.00,,CLR,0.00,VWS V14.00,2013-01-30 09:20:00,
2013-01-30 01:26:00,41.7,31.6,30.18,NE,44,0.0,0.0,67,0.00,,CLR,0.00,VWS V14.00,2013-01-30 09:26:00,
2013-01-30 01:32:00,41.7,31.6,30.18,NE,44,0.0,0.0,67,0.00,,CLR,0.00,VWS V14.00,2013-01-30 09:32:00,
2013-01-30 01:38:00,41.7,31.6,30.18,NE,44,0.0,0.0,67,0.00,,CLR,0.00,VWS V14.00,2013-01-30 09:38:00,
2013-01-30 01:44:00,41.7,31.9,30.18,NE,44,0.0,0.0,68,0.00,,CLR,0.00,VWS V14.00,2013-01-30 09:44:00,
2013-01-30 01:50:00,41.7,31.9,30.18,NE,44,0.0,0.0,68,0.00,,CLR,0.00,VWS V14.00,2013-01-30 09:50:00,
2013-01-30 01:56:00,41.5,31.8,30.18,NE,44,0.0,0.0,68,0.00,,CLR,0.00,VWS V14.00,2013-01-30 09:56:00,
2013-01-30 02:02:00,41.5,31.8,30.18,NE,44,0.0,0.0,68,0.00,,CLR,0.00,VWS V14.00,2013-01-30 10:02:00,
2013-01-30 02:08:00,41.3,31.6,30.21,NE,44,0.0,0.0,68,0.00,,CLR,0.00,VWS V14.00,2013-01-30 10:08:00,
2013-01-30 02:14:00,41.3,32.0,30.21,NE,44,0.0,0.0,69,0.00,,CLR,0.00,VWS V14.00,2013-01-30 10:14:00,
2013-01-30 02:20:00,41.0,31.6,30.21,NE,44,0.0,0.0,69,0.00,,CLR,0.00,VWS V14.00,2013-01-30 10:20:00,
2013-01-30 02:26:00,41.2,31.8,30.21,NE,44,0.0,0.0,69,0.00,,CLR,0.00,VWS V14.00,2013-01-30 10:26:00,
2013-01-30 02:32:00,41.2,31.8,30.21,NE,44,0.0,0.0,69,0.00,,CLR,0.00,VWS V14.00,2013-01-30 10:32:00,
2013-01-30 02:38:00,41.0,31.6,30.21,NE,44,0.0,0.0,69,0.00,,CLR,0.00,VWS V14.00,2013-01-30 10:38:00,
2013-01-30 02:44:00,41.0,32.0,30.21,NE,44,0.0,0.0,70,0.00,,CLR,0.00,VWS V14.00,2013-01-30 10:44:00,
2013-01-30 02:50:00,40.8,31.8,30.21,NE,44,0.0,0.0,70,0.00,,CLR,0.00,VWS V14.00,2013-01-30 10:50:00,
2013-01-30 02:56:00,40.8,31.8,30.21,NE,44,0.0,0.0,70,0.00,,CLR,0.00,VWS V14.00,2013-01-30 10:56:00,
2013-01-30 03:02:00,40.6,32.0,30.21,NE,44,0.0,0.0,71,0.00,,CLR,0.00,VWS V14.00,2013-01-30 11:02:00,
2013-01-30 03:08:00,40.8,31.8,30.21,NE,44,0.0,0.0,70,0.00,,CLR,0.00,VWS V14.00,2013-01-30 11:08:00,
2013-01-30 03:14:00,40.8,32.1,30.21,NE,35,3.1,3.6,71,0.00,,CLR,0.00,VWS V14.00,2013-01-30 11:14:00,
2013-01-30 03:20:00,40.8,32.1,30.21,NE,35,2.2,2.2,71,0.00,,CLR,0.00,VWS V14.00,2013-01-30 11:20:00,
2013-01-30 03:26:00,40.8,32.1,30.21,NE,35,2.7,2.7,71,0.00,,CLR,0.00,VWS V14.00,2013-01-30 11:26:00,
2013-01-30 03:32:00,41.3,33.0,30.21,NNW,332,3.1,3.6,72,0.00,,CLR,0.00,VWS V14.00,2013-01-30 11:32:00,
2013-01-30 03:38:00,41.0,32.7,30.21,NW,325,0.0,0.0,72,0.00,,CLR,0.00,VWS V14.00,2013-01-30 11:38:00,
2013-01-30 03:44:00,41.0,33.0,30.21,NW,325,0.0,0.0,73,0.00,,CLR,0.00,VWS V14.00,2013-01-30 11:44:00,
2013-01-30 03:50:00,40.8,32.8,30.21,NW,325,0.0,0.0,73,0.00,,CLR,0.00,VWS V14.00,2013-01-30 11:50:00,
2013-01-30 03:56:00,40.4,32.5,30.21,NW,325,0.0,0.0,73,0.00,,CLR,0.00,VWS V14.00,2013-01-30 11:56:00,
2013-01-30 04:02:00,40.4,32.5,30.21,NW,325,0.0,0.0,73,0.00,,CLR,0.00,VWS V14.00,2013-01-30 12:02:00,
2013-01-30 04:08:00,40.3,32.3,30.21,NW,325,0.0,0.0,73,0.00,,CLR,0.00,VWS V14.00,2013-01-30 12:08:00,
2013-01-30 04:14:00,40.3,32.3,30.21,NW,325,0.0,0.0,73,0.00,,CLR,0.00,VWS V14.00,2013-01-30 12:14:00,
2013-01-30 04:20:00,40.1,32.1,30.21,NW,325,0.0,0.0,73,0.00,,CLR,0.00,VWS V14.00,2013-01-30 12:20:00,
2013-01-30 04:26:00,40.1,32.1,30.21,NW,325,0.0,0.0,73,0.00,,CLR,0.00,VWS V14.00,2013-01-30 12:26:00,
2013-01-30 04:32:00,39.9,32.0,30.21,NW,325,0.0,0.0,73,0.00,,CLR,0.00,VWS V14.00,2013-01-30 12:32:00,
2013-01-30 04:38:00,39.7,31.8,30.21,NW,325,0.0,0.0,73,0.00,,CLR,0.00,VWS V14.00,2013-01-30 12:38:00,
2013-01-30 04:44:00,39.7,31.8,30.21,NW,325,0.0,0.0,73,0.00,,CLR,0.00,VWS V14.00,2013-01-30 12:44:00,
2013-01-30 04:50:00,39.7,32.1,30.24,NW,325,0.0,0.0,74,0.00,,CLR,0.00,VWS V14.00,2013-01-30 12:50:00,
2013-01-30 04:56:00,39.7,32.1,30.24,NW,325,0.0,0.0,74,0.00,,CLR,0.00,VWS V14.00,2013-01-30 12:56:00,
2013-01-30 05:02:00,39.5,31.6,30.24,NW,325,0.0,0.0,73,0.00,,CLR,0.00,VWS V14.00,2013-01-30 13:02:00,
2013-01-30 05:08:00,39.2,31.3,30.24,NW,325,0.0,0.0,73,0.00,,CLR,0.00,VWS V14.00,2013-01-30 13:08:00,
2013-01-30 05:14:00,39.4,31.8,30.24,NW,325,0.0,0.0,74,0.00,,CLR,0.00,VWS V14.00,2013-01-30 13:14:00,
2013-01-30 05:20:00,39.2,31.6,30.24,NW,325,0.0,0.0,74,0.00,,CLR,0.00,VWS V14.00,2013-01-30 13:20:00,
2013-01-30 05:26:00,39.4,31.8,30.24,NW,325,0.0,0.0,74,0.00,,CLR,0.00,VWS V14.00,2013-01-30 13:26:00,
2013-01-30 05:32:00,39.2,31.6,30.24,NW,325,0.0,0.0,74,0.00,,CLR,0.00,VWS V14.00,2013-01-30 13:32:00,
2013-01-30 05:38:00,39.0,31.4,30.24,NW,325,0.0,0.0,74,0.00,,CLR,0.00,VWS V14.00,2013-01-30 13:38:00,
2013-01-30 05:44:00,39.2,31.6,30.24,NW,325,0.0,0.0,74,0.00,,CLR,0.00,VWS V14.00,2013-01-30 13:44:00,
2013-01-30 05:50:00,39.2,31.6,30.24,North,350,3.6,3.6,74,0.00,,CLR,0.00,VWS V14.00,2013-01-30 13:50:00,
2013-01-30 05:56:00,39.2,31.9,30.24,North,350,2.2,2.2,75,0.00,,CLR,0.00,VWS V14.00,2013-01-30 13:56:00,
2013-01-30 06:02:00,39.2,31.6,30.24,North,349,0.0,0.0,74,0.00,,CLR,0.00,VWS V14.00,2013-01-30 14:02:00,
2013-01-30 06:08:00,39.0,31.4,30.24,North,350,0.0,0.0,74,0.00,,CLR,0.00,VWS V14.00,2013-01-30 14:08:00,
2013-01-30 06:14:00,39.0,31.8,30.24,North,349,0.0,0.0,75,0.00,,CLR,0.00,VWS V14.00,2013-01-30 14:14:00,
2013-01-30 06:20:00,39.2,31.9,30.24,North,353,2.7,3.1,75,0.00,,CLR,0.00,VWS V14.00,2013-01-30 14:20:00,
2013-01-30 06:26:00,39.2,31.9,30.24,North,353,0.0,0.0,75,0.00,,CLR,0.00,VWS V14.00,2013-01-30 14:26:00,
2013-01-30 06:32:00,39.5,32.3,30.24,North,353,0.0,0.0,75,0.00,,CLR,0.00,VWS V14.00,2013-01-30 14:32:00,
2013-01-30 06:38:00,39.4,32.1,30.24,North,353,0.0,0.0,75,0.00,,CLR,0.00,VWS V14.00,2013-01-30 14:38:00,
2013-01-30 06:44:00,39.2,31.9,30.24,North,353,0.0,0.0,75,0.00,,CLR,0.00,VWS V14.00,2013-01-30 14:44:00,
2013-01-30 06:50:00,39.2,32.3,30.27,North,353,0.0,0.0,76,0.00,,CLR,0.00,VWS V14.00,2013-01-30 14:50:00,
2013-01-30 06:56:00,39.0,32.1,30.27,North,353,0.0,0.0,76,0.00,,CLR,0.00,VWS V14.00,2013-01-30 14:56:00,
2013-01-30 07:02:00,39.0,32.1,30.27,North,353,0.0,0.0,76,0.00,,CLR,0.00,VWS V14.00,2013-01-30 15:02:00,
2013-01-30 07:08:00,38.8,31.9,30.27,North,353,0.0,0.0,76,0.00,,CLR,0.00,VWS V14.00,2013-01-30 15:08:00,
2013-01-30 07:14:00,39.0,32.1,30.27,North,353,0.0,0.0,76,0.00,,CLR,0.00,VWS V14.00,2013-01-30 15:14:00,
2013-01-30 07:20:00,39.2,32.3,30.27,North,353,0.0,0.0,76,0.00,,CLR,0.00,VWS V14.00,2013-01-30 15:20:00,
2013-01-30 07:26:00,39.5,32.6,30.27,North,353,0.0,0.0,76,0.00,,CLR,0.00,VWS V14.00,2013-01-30 15:26:00,
2013-01-30 07:32:00,40.1,33.1,30.27,North,353,0.0,0.0,76,0.00,,CLR,0.00,VWS V14.00,2013-01-30 15:32:00,
2013-01-30 07:38:00,40.8,34.2,30.27,North,353,0.0,0.0,77,0.00,,CLR,0.00,VWS V14.00,2013-01-30 15:38:00,
2013-01-30 07:44:00,41.3,34.7,30.27,North,353,0.0,0.0,77,0.00,,CLR,0.00,VWS V14.00,2013-01-30 15:44:00,
2013-01-30 07:50:00,42.1,35.4,30.27,North,353,0.0,0.0,77,0.00,,CLR,0.00,VWS V14.00,2013-01-30 15:50:00,
2013-01-30 07:56:00,43.0,36.3,30.27,North,353,0.0,0.0,77,0.00,,CLR,0.00,VWS V14.00,2013-01-30 15:56:00,
2013-01-30 08:02:00,43.9,37.5,30.27,North,353,0.0,0.0,78,0.00,,CLR,0.00,VWS V14.00,2013-01-30 16:02:00,
2013-01-30 08:08:00,44.8,38.3,30.27,North,353,0.0,0.0,78,0.00,,CLR,0.00,VWS V14.00,2013-01-30 16:08:00,
2013-01-30 08:14:00,45.3,38.9,30.27,North,353,0.0,0.0,78,0.00,,CLR,0.00,VWS V14.00,2013-01-30 16:14:00,
2013-01-30 08:20:00,46.0,39.6,30.27,North,353,0.0,0.0,78,0.00,,CLR,0.00,VWS V14.00,2013-01-30 16:20:00,
2013-01-30 08:26:00,47.1,40.9,30.27,North,353,2.7,2.7,79,0.00,,CLR,0.00,VWS V14.00,2013-01-30 16:26:00,
2013-01-30 08:32:00,48.0,41.8,30.27,NE,42,0.0,0.0,79,0.00,,CLR,0.00,VWS V14.00,2013-01-30 16:32:00,
2013-01-30 08:38:00,49.1,42.9,30.30,NE,43,0.0,2.7,79,0.00,,CLR,0.00,VWS V14.00,2013-01-30 16:38:00,
2013-01-30 08:44:00,50.2,43.9,30.30,NE,37,4.0,4.0,79,0.00,,CLR,0.00,VWS V14.00,2013-01-30 16:44:00,
2013-01-30 08:50:00,50.9,44.6,30.27,NNE,30,3.1,3.6,79,0.00,,CLR,0.00,VWS V14.00,2013-01-30 16:50:00,
2013-01-30 08:56:00,51.1,44.8,30.27,NE,43,3.1,5.4,79,0.00,,CLR,0.00,VWS V14.00,2013-01-30 16:56:00,
2013-01-30 09:02:00,52.3,46.0,30.27,NNE,22,3.6,4.9,79,0.00,,CLR,0.00,VWS V14.00,2013-01-30 17:02:00,
2013-01-30 09:08:00,53.0,46.4,30.30,NE,36,2.7,4.0,78,0.00,,CLR,0.00,VWS V14.00,2013-01-30 17:08:00,
2013-01-30 09:14:00,53.4,45.0,30.30,ENE,65,2.7,3.6,73,0.00,,CLR,0.00,VWS V14.00,2013-01-30 17:14:00,
2013-01-30 09:20:00,53.0,43.2,30.30,ESE,115,0.0,0.0,69,0.00,,CLR,0.00,VWS V14.00,2013-01-30 17:20:00,
2013-01-30 09:26:00,54.8,34.5,30.30,NE,46,3.6,4.0,46,0.00,,CLR,0.00,VWS V14.00,2013-01-30 17:26:00,
2013-01-30 09:32:00,56.1,34.5,30.30,ENE,78,3.1,4.0,44,0.00,,CLR,0.00,VWS V14.00,2013-01-30 17:32:00,
2013-01-30 09:38:00,56.6,33.8,30.30,SE,128,3.1,3.1,42,0.00,,CLR,0.00,VWS V14.00,2013-01-30 17:38:00,
2013-01-30 09:44:00,57.2,29.8,30.30,SE,143,0.0,0.0,35,0.00,,CLR,0.00,VWS V14.00,2013-01-30 17:44:00,
2013-01-30 09:50:00,58.1,30.6,30.30,ESE,122,0.0,3.1,35,0.00,,CLR,0.00,VWS V14.00,2013-01-30 17:50:00,
2013-01-30 09:56:00,59.0,30.7,30.30,SE,127,0.0,0.0,34,0.00,,CLR,0.00,VWS V14.00,2013-01-30 17:56:00,
2013-01-30 10:02:00,59.5,27.3,30.30,SE,141,0.0,2.2,29,0.00,,CLR,0.00,VWS V14.00,2013-01-30 18:02:00,
2013-01-30 10:08:00,60.4,29.7,30.30,NE,46,0.0,3.6,31,0.00,,CLR,0.00,VWS V14.00,2013-01-30 18:08:00,
2013-01-30 10:14:00,61.3,27.1,30.30,ENE,58,0.0,0.0,27,0.00,,CLR,0.00,VWS V14.00,2013-01-30 18:14:00,
2013-01-30 10:20:00,62.2,26.9,30.30,East,96,0.0,0.0,26,0.00,,CLR,0.00,VWS V14.00,2013-01-30 18:20:00,
2013-01-30 10:26:00,62.6,26.3,30.30,SSE,148,3.6,3.6,25,0.00,,CLR,0.00,VWS V14.00,2013-01-30 18:26:00,
2013-01-30 10:32:00,62.8,25.5,30.30,NE,36,0.0,0.0,24,0.00,,CLR,0.00,VWS V14.00,2013-01-30 18:32:00,
2013-01-30 10:38:00,63.3,25.9,30.30,SSE,161,2.7,3.1,24,0.00,,CLR,0.00,VWS V14.00,2013-01-30 18:38:00,
2013-01-30 10:44:00,63.5,25.0,30.30,SSE,147,2.2,3.6,23,0.00,,CLR,0.00,VWS V14.00,2013-01-30 18:44:00,
2013-01-30 10:50:00,64.4,25.8,30.30,North,353,3.1,3.1,23,0.00,,CLR,0.00,VWS V14.00,2013-01-30 18:50:00,
2013-01-30 10:56:00,64.9,26.3,30.30,North,357,0.0,3.1,23,0.00,,CLR,0.00,VWS V14.00,2013-01-30 18:56:00,
2013-01-30 11:02:00,66.2,26.2,30.30,SSW,205,0.0,2.7,22,0.00,,CLR,0.00,VWS V14.00,2013-01-30 19:02:00,
2013-01-30 11:08:00,66.9,26.9,30.30,NW,304,0.0,0.0,22,0.00,,CLR,0.00,VWS V14.00,2013-01-30 19:08:00,
2013-01-30 11:16:00,67.3,21.0,30.30,North,3,3.6,4.9,17,0.00,,CLR,0.00,VWS V14.00,2013-01-30 19:16:00,
2013-01-30 11:22:00,68.0,21.6,30.27,East,85,3.6,3.6,17,0.00,,CLR,0.00,VWS V14.00,2013-01-30 19:22:00,
2013-01-30 11:28:00,68.2,21.7,30.27,SSE,153,0.0,2.7,17,0.00,,CLR,0.00,VWS V14.00,2013-01-30 19:28:00,
2013-01-30 11:34:00,68.5,22.0,30.27,North,353,0.0,3.6,17,0.00,,CLR,0.00,VWS V14.00,2013-01-30 19:34:00,
2013-01-30 11:40:00,69.6,18.3,30.27,NE,34,4.0,4.0,14,0.00,,CLR,0.00,VWS V14.00,2013-01-30 19:40:00,
2013-01-30 11:46:00,70.5,19.0,30.27,NE,37,3.1,4.0,14,0.00,,CLR,0.00,VWS V14.00,2013-01-30 19:46:00,
2013-01-30 11:52:00,71.4,18.0,30.27,ENE,65,3.1,4.5,13,0.00,,CLR,0.00,VWS V14.00,2013-01-30 19:52:00,
2013-01-30 11:58:00,72.3,18.7,30.27,East,90,0.0,2.2,13,0.00,,CLR,0.00,VWS V14.00,2013-01-30 19:58:00,
2013-01-30 12:04:00,71.8,14.5,30.24,NW,320,2.7,4.9,11,0.00,,CLR,0.00,VWS V14.00,2013-01-30 20:04:00,
2013-01-30 12:10:00,71.4,14.2,30.24,West,273,3.6,4.9,11,0.00,,CLR,0.00,VWS V14.00,2013-01-30 20:10:00,
2013-01-30 12:16:00,71.9,14.6,30.24,ENE,62,3.1,3.6,11,0.00,,CLR,0.00,VWS V14.00,2013-01-30 20:16:00,
2013-01-30 12:22:00,71.8,14.5,30.24,South,182,0.0,3.1,11,0.00,,CLR,0.00,VWS V14.00,2013-01-30 20:22:00,
2013-01-30 12:28:00,71.2,14.1,30.24,SW,235,0.0,2.7,11,0.00,,CLR,0.00,VWS V14.00,2013-01-30 20:28:00,
2013-01-30 12:34:00,71.9,14.6,30.24,NNW,341,4.0,4.9,11,0.00,,CLR,0.00,VWS V14.00,2013-01-30 20:34:00,
2013-01-30 12:40:00,71.8,14.5,30.24,West,272,3.6,4.9,11,0.00,,CLR,0.00,VWS V14.00,2013-01-30 20:40:00,
2013-01-30 12:46:00,71.2,14.1,30.24,West,268,5.4,5.4,11,0.00,,CLR,0.00,VWS V14.00,2013-01-30 20:46:00,
2013-01-30 12:52:00,70.7,13.6,30.21,West,274,5.4,5.4,11,0.00,,CLR,0.00,VWS V14.00,2013-01-30 20:52:00,
2013-01-30 12:58:00,71.2,14.1,30.21,WSW,256,0.0,5.8,11,0.00,,CLR,0.00,VWS V14.00,2013-01-30 20:58:00,
2013-01-30 13:04:00,70.3,13.4,30.21,SW,231,3.1,6.3,11,0.00,,CLR,0.00,VWS V14.00,2013-01-30 21:04:00,
2013-01-30 13:10:00,71.4,14.2,30.21,WNW,302,0.0,3.6,11,0.00,,CLR,0.00,VWS V14.00,2013-01-30 21:10:00,
2013-01-30 13:16:00,72.1,14.8,30.21,SSW,192,6.3,8.1,11,0.00,,CLR,0.00,VWS V14.00,2013-01-30 21:16:00,
2013-01-30 13:22:00,70.3,18.9,30.21,SSW,207,4.9,6.3,14,0.00,,CLR,0.00,VWS V14.00,2013-01-30 21:22:00,
2013-01-30 13:28:00,68.9,17.8,30.21,WSW,245,5.4,6.3,14,0.00,,CLR,0.00,VWS V14.00,2013-01-30 21:28:00,
2013-01-30 13:34:00,68.7,17.6,30.21,SSW,207,5.8,7.6,14,0.00,,CLR,0.00,VWS V14.00,2013-01-30 21:34:00,
2013-01-30 13:40:00,68.3,17.3,30.21,West,264,3.6,6.3,14,0.00,,CLR,0.00,VWS V14.00,2013-01-30 21:40:00,
2013-01-30 13:46:00,68.9,17.8,30.21,SW,214,4.9,5.8,14,0.00,,CLR,0.00,VWS V14.00,2013-01-30 21:46:00,
2013-01-30 13:52:00,69.1,17.9,30.21,WSW,250,4.5,4.9,14,0.00,,CLR,0.00,VWS V14.00,2013-01-30 21:52:00,
2013-01-30 13:58:00,69.8,18.5,30.21,South,190,5.4,5.4,14,0.00,,CLR,0.00,VWS V14.00,2013-01-30 21:58:00,
2013-01-30 14:04:00,69.6,18.3,30.18,WSW,243,5.4,5.4,14,0.00,,CLR,0.00,VWS V14.00,2013-01-30 22:04:00,
2013-01-30 14:10:00,70.3,18.9,30.18,SE,130,4.0,5.4,14,0.00,,CLR,0.00,VWS V14.00,2013-01-30 22:10:00,
2013-01-30 14:16:00,70.5,13.5,30.18,SSW,212,4.0,5.4,11,0.00,,CLR,0.00,VWS V14.00,2013-01-30 22:16:00,
2013-01-30 14:22:00,71.2,14.1,30.18,SSW,207,2.7,5.4,11,0.00,,CLR,0.00,VWS V14.00,2013-01-30 22:22:00,
2013-01-30 14:28:00,71.2,14.1,30.18,SSW,192,4.9,5.4,11,0.00,,CLR,0.00,VWS V14.00,2013-01-30 22:28:00,
2013-01-30 14:34:00,71.2,14.1,30.18,SSE,168,5.8,5.8,11,0.00,,CLR,0.00,VWS V14.00,2013-01-30 22:34:00,
2013-01-30 14:40:00,71.0,13.9,30.18,SSW,204,3.6,6.3,11,0.00,,CLR,0.00,VWS V14.00,2013-01-30 22:40:00,
2013-01-30 14:46:00,70.9,13.8,30.18,SSE,152,3.6,6.3,11,0.00,,CLR,0.00,VWS V14.00,2013-01-30 22:46:00,
2013-01-30 14:52:00,70.1,13.2,30.18,South,186,4.9,5.4,11,0.00,,CLR,0.00,VWS V14.00,2013-01-30 22:52:00,
2013-01-30 14:58:00,70.0,13.1,30.18,SSW,205,3.1,5.8,11,0.00,,CLR,0.00,VWS V14.00,2013-01-30 22:58:00,
2013-01-30 15:04:00,70.0,13.1,30.18,South,188,6.3,6.3,11,0.00,,CLR,0.00,VWS V14.00,2013-01-30 23:04:00,
2013-01-30 15:10:00,69.8,12.9,30.18,SW,215,4.0,6.3,11,0.00,,CLR,0.00,VWS V14.00,2013-01-30 23:10:00,
2013-01-30 15:16:00,69.8,12.9,30.18,SW,236,3.6,4.5,11,0.00,,CLR,0.00,VWS V14.00,2013-01-30 23:16:00,
2013-01-30 15:22:00,69.2,14.5,30.18,WSW,245,5.4,5.8,12,0.00,,CLR,0.00,VWS V14.00,2013-01-30 23:22:00,
2013-01-30 15:28:00,70.0,13.1,30.18,South,184,5.4,5.8,11,0.00,,CLR,0.00,VWS V14.00,2013-01-30 23:28:00,
2013-01-30 15:34:00,69.8,12.9,30.18,SSW,196,3.6,5.4,11,0.00,,CLR,0.00,VWS V14.00,2013-01-30 23:34:00,
2013-01-30 15:40:00,69.1,14.4,30.18,WSW,246,4.9,5.8,12,0.00,,CLR,0.00,VWS V14.00,2013-01-30 23:40:00,
2013-01-30 15:46:00,69.6,12.8,30.18,WNW,299,3.6,4.9,11,0.00,,CLR,0.00,VWS V14.00,2013-01-30 23:46:00,
2013-01-30 15:52:00,69.4,14.6,30.15,South,189,5.4,5.8,12,0.00,,CLR,0.00,VWS V14.00,2013-01-30 23:52:00,
2013-01-30 15:58:00,69.2,14.5,30.15,SSE,163,4.9,5.8,12,0.00,,CLR,0.00,VWS V14.00,2013-01-30 23:58:00,
2013-01-30 16:04:00,69.1,14.4,30.15,South,171,3.6,4.5,12,0.00,,CLR,0.00,VWS V14.00,2013-01-31 00:04:00,
2013-01-30 16:10:00,68.5,13.9,30.15,SSW,211,4.9,6.3,12,0.00,,CLR,0.00,VWS V14.00,2013-01-31 00:10:00,
2013-01-30 16:16:00,68.5,13.9,30.15,SW,228,3.6,4.9,12,0.00,,CLR,0.00,VWS V14.00,2013-01-31 00:16:00,
2013-01-30 16:22:00,68.0,13.5,30.15,WSW,246,4.9,4.9,12,0.00,,CLR,0.00,VWS V14.00,2013-01-31 00:22:00,
2013-01-30 16:28:00,68.2,13.6,30.15,SSW,206,4.0,6.3,12,0.00,,CLR,0.00,VWS V14.00,2013-01-31 00:28:00,
2013-01-30 16:34:00,67.8,13.4,30.15,SSW,206,3.1,4.9,12,0.00,,CLR,0.00,VWS V14.00,2013-01-31 00:34:00,
2013-01-30 16:40:00,67.6,13.2,30.15,SSW,194,3.1,4.0,12,0.00,,CLR,0.00,VWS V14.00,2013-01-31 00:40:00,
2013-01-30 16:46:00,67.8,13.4,30.15,SSW,209,2.7,4.0,12,0.00,,CLR,0.00,VWS V14.00,2013-01-31 00:46:00,
2013-01-30 16:52:00,67.6,13.2,30.15,SSW,202,3.6,4.0,12,0.00,,CLR,0.00,VWS V14.00,2013-01-31 00:52:00,
2013-01-30 16:58:00,67.3,12.9,30.15,SSW,202,2.2,3.6,12,0.00,,CLR,0.00,VWS V14.00,2013-01-31 00:58:00,
2013-01-30 17:04:00,66.7,12.5,30.15,SSW,203,2.2,3.1,12,0.00,,CLR,0.00,VWS V14.00,2013-01-31 01:04:00,
2013-01-30 17:10:00,66.4,12.2,30.15,SSW,204,2.7,3.1,12,0.00,,CLR,0.00,VWS V14.00,2013-01-31 01:10:00,
2013-01-30 17:16:00,65.5,11.5,30.15,West,271,2.7,3.1,12,0.00,,CLR,0.00,VWS V14.00,2013-01-31 01:16:00,
2013-01-30 17:22:00,65.1,11.3,30.15,NW,325,4.0,4.0,12,0.00,,CLR,0.00,VWS V14.00,2013-01-31 01:22:00,
2013-01-30 17:28:00,64.2,10.6,30.15,NW,304,2.7,3.1,12,0.00,,CLR,0.00,VWS V14.00,2013-01-31 01:28:00,
2013-01-30 17:34:00,63.7,11.9,30.15,WNW,289,3.6,4.0,13,0.00,,CLR,0.00,VWS V14.00,2013-01-31 01:34:00,
2013-01-30 17:40:00,63.3,11.6,30.15,WNW,299,4.0,4.9,13,0.00,,CLR,0.00,VWS V14.00,2013-01-31 01:40:00,
2013-01-30 17:46:00,62.8,14.5,30.15,NW,305,4.0,4.0,15,0.00,,CLR,0.00,VWS V14.00,2013-01-31 01:46:00,
2013-01-30 17:52:00,62.4,14.2,30.18,WNW,290,2.2,3.6,15,0.00,,CLR,0.00,VWS V14.00,2013-01-31 01:52:00,
2013-01-30 17:58:00,61.9,15.2,30.18,WNW,293,0.0,0.0,16,0.00,,CLR,0.00,VWS V14.00,2013-01-31 01:58:00,
2013-01-30 18:04:00,61.5,14.9,30.18,WNW,300,2.7,2.7,16,0.00,,CLR,0.00,VWS V14.00,2013-01-31 02:04:00,
2013-01-30 18:10:00,61.1,14.6,30.18,NW,305,3.6,4.0,16,0.00,,CLR,0.00,VWS V14.00,2013-01-31 02:10:00,
2013-01-30 18:16:00,60.6,14.2,30.18,NW,305,2.2,2.7,16,0.00,,CLR,0.00,VWS V14.00,2013-01-31 02:16:00,
2013-01-30 18:22:00,60.2,13.9,30.18,NW,315,2.7,3.6,16,0.00,,CLR,0.00,VWS V14.00,2013-01-31 02:22:00,
2013-01-30 18:28:00,59.9,13.6,30.18,NW,315,3.1,4.0,16,0.00,,CLR,0.00,VWS V14.00,2013-01-31 02:28:00,
2013-01-30 18:34:00,59.5,13.3,30.18,NW,315,3.6,4.0,16,0.00,,CLR,0.00,VWS V14.00,2013-01-31 02:34:00,
2013-01-30 18:40:00,59.2,13.0,30.18,NW,324,3.6,3.6,16,0.00,,CLR,0.00,VWS V14.00,2013-01-31 02:40:00,
2013-01-30 18:46:00,59.0,16.8,30.18,NW,315,2.2,3.1,19,0.00,,CLR,0.00,VWS V14.00,2013-01-31 02:46:00,
2013-01-30 18:52:00,58.6,16.5,30.18,NW,321,2.2,3.1,19,0.00,,CLR,0.00,VWS V14.00,2013-01-31 02:52:00,
2013-01-30 18:58:00,58.4,16.4,30.18,NW,321,0.0,0.0,19,0.00,,CLR,0.00,VWS V14.00,2013-01-31 02:58:00,
2013-01-30 19:04:00,58.1,16.1,30.18,NW,321,0.0,0.0,19,0.00,,CLR,0.00,VWS V14.00,2013-01-31 03:04:00,
2013-01-30 19:10:00,57.7,19.2,30.18,NW,321,0.0,0.0,22,0.00,,CLR,0.00,VWS V14.00,2013-01-31 03:10:00,
2013-01-30 19:16:00,57.4,18.9,30.18,NW,321,0.0,0.0,22,0.00,,CLR,0.00,VWS V14.00,2013-01-31 03:16:00,
2013-01-30 19:22:00,57.2,20.7,30.18,NW,321,0.0,0.0,24,0.00,,CLR,0.00,VWS V14.00,2013-01-31 03:22:00,
2013-01-30 19:28:00,56.8,21.4,30.18,NW,321,0.0,0.0,25,0.00,,CLR,0.00,VWS V14.00,2013-01-31 03:28:00,
2013-01-30 19:34:00,56.5,21.1,30.18,NW,321,0.0,0.0,25,0.00,,CLR,0.00,VWS V14.00,2013-01-31 03:34:00,
2013-01-30 19:40:00,56.1,20.8,30.18,North,353,2.7,3.6,25,0.00,,CLR,0.00,VWS V14.00,2013-01-31 03:40:00,
2013-01-30 19:46:00,55.9,21.5,30.18,North,353,0.0,0.0,26,0.00,,CLR,0.00,VWS V14.00,2013-01-31 03:46:00,
2013-01-30 19:52:00,55.7,21.4,30.18,North,353,0.0,0.0,26,0.00,,CLR,0.00,VWS V14.00,2013-01-31 03:52:00,
2013-01-30 19:58:00,55.2,20.9,30.18,North,353,0.0,0.0,26,0.00,,CLR,0.00,VWS V14.00,2013-01-31 03:58:00,
2013-01-30 20:04:00,55.0,22.5,30.18,North,353,0.0,0.0,28,0.00,,CLR,0.00,VWS V14.00,2013-01-31 04:04:00,
2013-01-30 20:10:00,54.8,23.2,30.18,North,353,0.0,0.0,29,0.00,,CLR,0.00,VWS V14.00,2013-01-31 04:10:00,
2013-01-30 20:16:00,54.5,25.2,30.18,North,353,0.0,0.0,32,0.00,,CLR,0.00,VWS V14.00,2013-01-31 04:16:00,
2013-01-30 20:22:00,54.3,27.2,30.18,North,353,0.0,0.0,35,0.00,,CLR,0.00,VWS V14.00,2013-01-31 04:22:00,
2013-01-30 20:28:00,53.9,26.9,30.18,North,353,0.0,0.0,35,0.00,,CLR,0.00,VWS V14.00,2013-01-31 04:28:00,
2013-01-30 20:34:00,53.8,26.8,30.18,North,353,0.0,0.0,35,0.00,,CLR,0.00,VWS V14.00,2013-01-31 04:34:00,
2013-01-30 20:40:00,53.2,27.0,30.18,North,353,0.0,0.0,36,0.00,,CLR,0.00,VWS V14.00,2013-01-31 04:40:00,
2013-01-30 20:46:00,52.9,26.7,30.18,North,353,0.0,0.0,36,0.00,,CLR,0.00,VWS V14.00,2013-01-31 04:46:00,
2013-01-30 20:52:00,52.7,26.5,30.18,North,353,0.0,0.0,36,0.00,,CLR,0.00,VWS V14.00,2013-01-31 04:52:00,
2013-01-30 20:58:00,52.5,27.0,30.18,North,353,0.0,0.0,37,0.00,,CLR,0.00,VWS V14.00,2013-01-31 04:58:00,
2013-01-30 21:00:00,52.5,27.6,30.18,North,353,0.0,0.0,38,0.00,,CLR,0.00,VWS V14.00,2013-01-31 05:00:00,
2013-01-30 21:06:00,52.3,28.1,30.21,North,353,0.0,0.0,39,0.00,,CLR,0.00,VWS V14.00,2013-01-31 05:06:00,
2013-01-30 21:08:00,52.1,28.0,30.21,North,353,0.0,0.0,39,0.00,,CLR,0.00,VWS V14.00,2013-01-31 05:08:00,
2013-01-30 21:10:00,52.1,28.0,30.21,North,353,0.0,0.0,39,0.00,,CLR,0.00,VWS V14.00,2013-01-31 05:10:00,
2013-01-30 21:16:00,51.8,27.6,30.21,North,353,0.0,0.0,39,0.00,,CLR,0.00,VWS V14.00,2013-01-31 05:16:00,
2013-01-30 21:22:00,51.6,28.1,30.21,North,353,0.0,0.0,40,0.00,,CLR,0.00,VWS V14.00,2013-01-31 05:22:00,
2013-01-30 21:28:00,51.2,29.5,30.21,SE,140,0.0,2.2,43,0.00,,CLR,0.00,VWS V14.00,2013-01-31 05:28:00,
2013-01-30 21:34:00,51.1,29.4,30.21,SE,140,0.0,0.0,43,0.00,,CLR,0.00,VWS V14.00,2013-01-31 05:34:00,
2013-01-30 21:40:00,50.9,29.8,30.21,SE,141,0.0,0.0,44,0.00,,CLR,0.00,VWS V14.00,2013-01-31 05:40:00,
2013-01-30 21:46:00,50.7,29.6,30.21,SE,140,0.0,0.0,44,0.00,,CLR,0.00,VWS V14.00,2013-01-31 05:46:00,
2013-01-30 21:52:00,50.5,29.4,30.21,SE,140,0.0,0.0,44,0.00,,CLR,0.00,VWS V14.00,2013-01-31 05:52:00,
2013-01-30 21:58:00,50.3,29.3,30.21,SE,141,0.0,0.0,44,0.00,,CLR,0.00,VWS V14.00,2013-01-31 05:58:00,
2013-01-30 22:04:00,50.2,29.7,30.21,SE,141,0.0,0.0,45,0.00,,CLR,0.00,VWS V14.00,2013-01-31 06:04:00,
2013-01-30 22:10:00,50.2,30.2,30.21,SE,141,0.0,0.0,46,0.00,,CLR,0.00,VWS V14.00,2013-01-31 06:10:00,
2013-01-30 22:16:00,50.0,30.0,30.21,SE,140,0.0,0.0,46,0.00,,CLR,0.00,VWS V14.00,2013-01-31 06:16:00,
2013-01-30 22:22:00,49.6,29.7,30.21,SE,141,0.0,0.0,46,0.00,,CLR,0.00,VWS V14.00,2013-01-31 06:22:00,
2013-01-30 22:28:00,49.8,30.4,30.21,SE,140,0.0,0.0,47,0.00,,CLR,0.00,VWS V14.00,2013-01-31 06:28:00,
2013-01-30 22:34:00,49.4,30.1,30.21,SE,140,0.0,0.0,47,0.00,,CLR,0.00,VWS V14.00,2013-01-31 06:34:00,
2013-01-30 22:40:00,49.3,30.4,30.21,SE,140,0.0,0.0,48,0.00,,CLR,0.00,VWS V14.00,2013-01-31 06:40:00,
2013-01-30 22:46:00,49.1,30.3,30.21,SE,140,0.0,0.0,48,0.00,,CLR,0.00,VWS V14.00,2013-01-31 06:46:00,
2013-01-30 22:52:00,48.7,30.4,30.21,SE,140,0.0,0.0,49,0.00,,CLR,0.00,VWS V14.00,2013-01-31 06:52:00,
2013-01-30 22:58:00,48.5,30.3,30.21,SE,140,0.0,0.0,49,0.00,,CLR,0.00,VWS V14.00,2013-01-31 06:58:00,
2013-01-30 23:04:00,48.4,30.1,30.21,SE,140,0.0,0.0,49,0.00,,CLR,0.00,VWS V14.00,2013-01-31 07:04:00,
2013-01-30 23:10:00,48.2,29.4,30.21,SE,140,0.0,0.0,48,0.00,,CLR,0.00,VWS V14.00,2013-01-31 07:10:00,
2013-01-30 23:16:00,48.0,29.3,30.21,SE,140,0.0,0.0,48,0.00,,CLR,0.00,VWS V14.00,2013-01-31 07:16:00,
2013-01-30 23:22:00,48.0,29.8,30.21,SE,141,0.0,0.0,49,0.00,,CLR,0.00,VWS V14.00,2013-01-31 07:22:00,
2013-01-30 23:28:00,47.6,29.4,30.21,SE,140,0.0,0.0,49,0.00,,CLR,0.00,VWS V14.00,2013-01-31 07:28:00,
2013-01-30 23:34:00,47.6,29.9,30.21,SE,141,0.0,0.0,50,0.00,,CLR,0.00,VWS V14.00,2013-01-31 07:34:00,
2013-01-30 23:40:00,47.5,29.8,30.21,SE,140,0.0,0.0,50,0.00,,CLR,0.00,VWS V14.00,2013-01-31 07:40:00,
2013-01-30 23:46:00,47.3,29.6,30.21,SE,140,0.0,0.0,50,0.00,,CLR,0.00,VWS V14.00,2013-01-31 07:46:00,
2013-01-30 23:52:00,47.3,30.1,30.21,SE,140,0.0,0.0,51,0.00,,CLR,0.00,VWS V14.00,2013-01-31 07:52:00,
2013-01-30 23:58:00,46.9,29.3,30.21,SE,141,0.0,0.0,50,0.00,,CLR,0.00,VWS V14.00,2013-01-31 07:58:00,